»·PEaware :: N132EF KSBA-KSNA

N132EF :: KSBA-KSNA

FLIGHT INFORMATION

Flight Status: Arrived
Operator: Privately registered:
United States
More flights under this callsign
Pilot: Ron R. (25532)
Aircraft: BEECH AIRCRAFT DUKE
(BE60)
More flights by this aircraft type
Origin: KSBA Santa Barbara Mun
United States
Destination: KSNA John Wayne-Orange Co
United States
More flights between these airports :: More routes between these airports
Route: KWANG CMA VNY V186 BAYJY V363 POXKU V8 SLI
File this flight plan on PilotEdge
Remarks: TEC SBAP6
Altitude:
(Current/Filed)
5,000ft
Speed:
(Current/Filed)
200kts
Departed: 04-Oct-19 07:55 AM
Arrived: 04-Oct-19 08:39 AM
Distance/Time
Traveled:
108nm/0:44
Distance/Time
To Go:
Arrived

Flight Plot

Page will automatically refresh every two minutes.


Map Options




Map Legend


Flown Route
Filed Route
Departure Airport
Arrival Airport
Navaid (VOR, NDB)
Fix

Horizontal Profiles

Position Reports

Time Latitude Longitude Heading Altitude Ground
Speed
04-Oct-19 07:18 34.424494 -119.836056 254 13ft 0kts
04-Oct-19 07:19 34.424494 -119.836056 254 13ft 0kts
04-Oct-19 07:20 34.424494 -119.836056 254 13ft 0kts
04-Oct-19 07:21 34.424494 -119.836056 254 13ft 0kts
04-Oct-19 07:22 34.424494 -119.836056 254 13ft 0kts
04-Oct-19 07:23 34.424494 -119.836056 254 13ft 0kts
04-Oct-19 07:24 34.424494 -119.836056 254 13ft 0kts
04-Oct-19 07:25 34.424494 -119.836056 254 13ft 0kts
04-Oct-19 07:26 34.424494 -119.836057 254 13ft 0kts
04-Oct-19 07:27 34.424494 -119.836059 254 13ft 0kts
04-Oct-19 07:28 34.424493 -119.836061 254 13ft 0kts
04-Oct-19 07:29 34.424493 -119.836064 254 13ft 0kts
04-Oct-19 07:31 34.424491 -119.836070 254 13ft 0kts
04-Oct-19 07:32 34.424491 -119.836073 254 13ft 0kts
04-Oct-19 07:33 34.424490 -119.836075 254 13ft 0kts
04-Oct-19 07:34 34.424489 -119.836078 254 13ft 0kts
04-Oct-19 07:35 34.424489 -119.836081 254 13ft 0kts
04-Oct-19 07:36 34.424488 -119.836084 254 13ft 0kts
04-Oct-19 07:37 34.424487 -119.836086 254 13ft 0kts
04-Oct-19 07:38 34.424487 -119.836089 254 13ft 0kts
04-Oct-19 07:39 34.424486 -119.836092 254 13ft 0kts
04-Oct-19 07:40 34.424485 -119.836095 254 13ft 0kts
04-Oct-19 07:41 34.424446 -119.836410 277 13ft 7kts
04-Oct-19 07:42 34.426844 -119.836337 88 13ft 11kts
04-Oct-19 07:43 34.427195 -119.834882 296 13ft 0kts
04-Oct-19 07:44 34.427196 -119.834885 296 13ft 0kts
04-Oct-19 07:45 34.427197 -119.834888 296 13ft 0kts
04-Oct-19 07:46 34.427198 -119.834891 296 13ft 0kts
04-Oct-19 07:47 34.427201 -119.834898 296 13ft 0kts
04-Oct-19 07:48 34.427202 -119.834901 296 13ft 0kts
04-Oct-19 07:49 34.427360 -119.835152 356 13ft 0kts
04-Oct-19 07:50 34.427362 -119.835152 356 13ft 0kts
04-Oct-19 07:51 34.427363 -119.835152 356 13ft 0kts
04-Oct-19 07:52 34.427365 -119.835152 356 13ft 0kts
04-Oct-19 07:53 34.427869 -119.836839 268 13ft 31kts
04-Oct-19 07:54 34.427046 -119.875840 268 858ft 141kts
04-Oct-19 07:55 34.425386 -119.923763 268 2356ft 146kts
04-Oct-19 07:56 34.404187 -119.967257 190 3014ft 192kts
04-Oct-19 07:57 34.368716 -119.930710 104 3008ft 185kts
04-Oct-19 07:58 34.360482 -119.870172 97 3464ft 176kts
04-Oct-19 07:59 34.352597 -119.814171 97 4864ft 169kts
04-Oct-19 08:00 34.343395 -119.750273 97 5003ft 211kts
04-Oct-19 08:01 34.333255 -119.680138 97 5000ft 208kts
04-Oct-19 08:02 34.323326 -119.611441 97 5005ft 207kts
04-Oct-19 08:03 34.313348 -119.542764 97 5008ft 206kts
04-Oct-19 08:04 34.300385 -119.475016 103 5011ft 207kts
04-Oct-19 08:05 34.285170 -119.407703 103 5012ft 207kts
04-Oct-19 08:06 34.269907 -119.340369 103 5010ft 208kts
04-Oct-19 08:07 34.254592 -119.272950 103 5008ft 208kts
04-Oct-19 08:08 34.239215 -119.205297 103 5007ft 208kts
04-Oct-19 08:09 34.223813 -119.137831 103 5004ft 208kts
04-Oct-19 08:10 34.213717 -119.069621 85 5000ft 206kts
04-Oct-19 08:11 34.215536 -119.000271 86 4997ft 206kts
04-Oct-19 08:12 34.216770 -118.930734 87 4981ft 207kts
04-Oct-19 08:13 34.217932 -118.861181 87 4983ft 207kts
04-Oct-19 08:14 34.219074 -118.791397 87 4989ft 207kts
04-Oct-19 08:15 34.220179 -118.721721 87 4993ft 207kts
04-Oct-19 08:16 34.221238 -118.652024 87 5001ft 207kts
04-Oct-19 08:17 34.222265 -118.582169 87 4998ft 208kts
04-Oct-19 08:18 34.223251 -118.512229 87 4992ft 208kts
04-Oct-19 08:19 34.209706 -118.444808 109 4992ft 210kts
04-Oct-19 08:20 34.189269 -118.378465 109 4992ft 210kts
04-Oct-19 08:21 34.169110 -118.312115 109 4988ft 210kts
04-Oct-19 08:22 34.148922 -118.245822 109 4987ft 210kts
04-Oct-19 08:23 34.128690 -118.179560 109 4988ft 210kts
04-Oct-19 08:24 34.108400 -118.113384 109 4992ft 210kts
04-Oct-19 08:25 34.088092 -118.047183 109 4997ft 210kts
04-Oct-19 08:26 34.067679 -117.980771 109 4998ft 210kts
04-Oct-19 08:27 34.047303 -117.914624 109 4998ft 210kts
04-Oct-19 08:29 34.026890 -117.848506 109 4999ft 210kts
04-Oct-19 08:30 33.997937 -117.789354 152 5002ft 210kts
04-Oct-19 08:31 33.940626 -117.784143 180 4998ft 203kts
04-Oct-19 08:32 33.889030 -117.782603 179 4632ft 171kts
04-Oct-19 08:33 33.844900 -117.781278 179 3638ft 158kts
04-Oct-19 08:34 33.802738 -117.788324 205 2546ft 154kts
04-Oct-19 08:35 33.768849 -117.810150 206 1732ft 128kts
04-Oct-19 08:36 33.736918 -117.830117 207 1244ft 128kts
04-Oct-19 08:37 33.705742 -117.849782 207 628ft 121kts
04-Oct-19 08:38 33.677850 -117.867468 207 60ft 90kts
04-Oct-19 08:39 33.672034 -117.872600 338 59ft 8kts
04-Oct-19 08:40 33.674729 -117.871650 336 59ft 10kts
04-Oct-19 08:41 33.675204 -117.871916 26 59ft 0kts
04-Oct-19 08:42 33.675206 -117.871915 26 59ft 0kts
04-Oct-19 08:43 33.675207 -117.871914 26 59ft 0kts
04-Oct-19 08:44 33.675207 -117.871914 26 59ft 0kts
04-Oct-19 08:45 33.675207 -117.871914 26 59ft 0kts

Navigation Log

Ident Type
Flight plan parsing failed, navigation log unavailable